MMOX

Details ICAO MMOX (OAX)
Name XOXOCOTLAN INTL
Region Mexico
Timezone America/Mexico_City (UTC-6.0)
Plans Departing 35
Arriving 44
Stats Elevation 4,989 ft / 1,521 m (AMSL)
Location 16.998701° -96.725944°
Runways 1
Magnetic Variation 3.787° E
Sunrise 2017-12-10 12:47:14 UTC / 2017-12-10 06:47:14 Local
Sunset 2017-12-10 23:55:21 UTC / 2017-12-10 17:55:21 Local
Advertisement - Login to hide

Runways

ID Width Length Bearing (true) Bearing (mag) Surface Threshold Offset Overrun Length
01 148 ft / 45 m 8,072 ft / 2,460 m 15.62° 11.83° Asphalt 0 ft / 0 m 188 ft / 57 m
19 148 ft / 45 m 8,072 ft / 2,460 m 195.62° 191.83° Asphalt 0 ft / 0 m 188 ft / 57 m

Map

Weather


0- 5 10 15 20 25 30 35+ Temperature / ° C

Clouds and Precipitation
Forecast for 2017-12-11 00:00 UTC. Updated an hour ago

Ground ~20,000 ft ~40,000 ft Winds

METAR

MMOX 102347Z 32014KT 12SM SCT210 14/M03 A3036 RMK 8/006 HZY S

TAF

Not found

Frequencies

Tower 118.30 MHz OAXACA TWR
Approach 121.10 MHz OAXACA APP
Warning: Do not use this data for real-world aviation or navigation. No guarantee of current accuracy is given.